Welcome to Des Moines Iowa Weather. I am an independent private personal weather station on the Northwest Side of Des Moines, Iowa. Just East of Windsor Heights and just West of Glendale . This site is also mobile friendly.

There are no active watches, warnings or advisories


Visit our other weather sites:

Historical Data

Weather Station Setup



Weather Underground History page Text

Daily Summary for August 8, 2017 Units:  English    Metric   Both
« Previous Day
Next Day »
Daily Weekly Monthly Yearly Custom
  High: Low: Average:
Temperature: 82.1 °F 55.6 °F 69.4 °F
Dew Point: 61.0 °F 50.0 °F 54.7 °F
Humidity: 95 % 35 % 64 %
Wind Speed: 4.0 mph 0.0 mph 0.3 mph
Wind Gust: 6.0 mph - -
Wind:- - East
Pressure: 30.19 in 30.06 in -
Precipitation: 0.00 in    
Historical Graphs
 
 
Tabular Data for August 8, 2017
Time Temperature Dew Point Pressure Wind Wind Speed Wind Gust Humidity Rainfall Rate (Hourly)
00:04 63.7 °F 57.0 °F 30.13 in Calm     80 % 0.00 in
00:19 63.4 °F 58.0 °F 30.13 in Calm     81 % 0.00 in
00:34 63.0 °F 57.0 °F 30.14 in Calm     81 % 0.00 in
00:49 62.6 °F 57.0 °F 30.14 in Calm     82 % 0.00 in
01:04 62.2 °F 57.0 °F 30.14 in Calm     82 % 0.00 in
01:19 61.8 °F 57.0 °F 30.14 in Calm     83 % 0.00 in
01:34 61.3 °F 56.0 °F 30.14 in Calm     83 % 0.00 in
01:49 60.8 °F 56.0 °F 30.14 in Calm     84 % 0.00 in
02:04 60.3 °F 56.0 °F 30.14 in Calm     85 % 0.00 in
02:19 59.8 °F 55.0 °F 30.14 in Calm     85 % 0.00 in
02:34 59.4 °F 55.0 °F 30.14 in Calm     86 % 0.00 in
02:49 58.9 °F 55.0 °F 30.14 in Calm     86 % 0.00 in
03:04 58.6 °F 55.0 °F 30.14 in Calm     87 % 0.00 in
03:19 58.4 °F 55.0 °F 30.15 in Calm     88 % 0.00 in
03:34 58.2 °F 55.0 °F 30.14 in Calm     88 % 0.00 in
03:49 57.9 °F 54.0 °F 30.14 in Calm     88 % 0.00 in
04:05 57.6 °F 54.0 °F 30.15 in Calm     88 % 0.00 in
04:20 57.3 °F 54.0 °F 30.14 in Calm     89 % 0.00 in
04:35 57.1 °F 54.0 °F 30.14 in Calm     89 % 0.00 in
04:50 56.9 °F 54.0 °F 30.14 in Calm     90 % 0.00 in
05:04 56.8 °F 54.0 °F 30.14 in Calm     90 % 0.00 in
05:19 56.6 °F 54.0 °F 30.15 in Calm     90 % 0.00 in
05:35 56.5 °F 54.0 °F 30.15 in Calm     91 % 0.00 in
05:50 56.3 °F 54.0 °F 30.15 in Calm     91 % 0.00 in
06:05 56.1 °F 54.0 °F 30.16 in Calm     92 % 0.00 in
06:20 56.0 °F 54.0 °F 30.16 in Calm     92 % 0.00 in
06:35 55.8 °F 54.0 °F 30.17 in Calm     92 % 0.00 in
06:50 55.6 °F 53.0 °F 30.17 in Calm     92 % 0.00 in
07:05 55.6 °F 53.0 °F 30.17 in Calm     92 % 0.00 in
07:20 56.1 °F 54.0 °F 30.17 in Calm     93 % 0.00 in
07:35 56.7 °F 55.0 °F 30.18 in Calm     94 % 0.00 in
07:50 58.0 °F 57.0 °F 30.18 in Calm     95 % 0.00 in
08:05 59.3 °F 58.0 °F 30.18 in Calm     95 % 0.00 in
08:20 60.1 °F 59.0 °F 30.18 in Calm     95 % 0.00 in
08:35 60.5 °F 59.0 °F 30.18 in Calm     95 % 0.00 in
08:50 61.4 °F 60.0 °F 30.18 in Calm     94 % 0.00 in
09:05 62.8 °F 60.0 °F 30.18 in Calm     91 % 0.00 in
09:20 64.4 °F 61.0 °F 30.18 in Calm   1.0 mph 87 % 0.00 in
09:35 65.8 °F 59.0 °F 30.19 in Calm     79 % 0.00 in
09:50 67.1 °F 57.0 °F 30.18 in Calm   2.0 mph 70 % 0.00 in
10:05 68.6 °F 56.0 °F 30.19 in Calm   3.0 mph 65 % 0.00 in
10:20 70.0 °F 58.0 °F 30.19 in Calm   2.0 mph 65 % 0.00 in
10:36 71.3 °F 57.0 °F 30.19 in Calm   4.0 mph 60 % 0.00 in
10:50 72.4 °F 57.0 °F 30.19 in Calm   3.0 mph 58 % 0.00 in
11:05 73.8 °F 56.0 °F 30.19 in Calm   4.0 mph 54 % 0.00 in
11:20 75.2 °F 57.0 °F 30.18 in Calm   3.0 mph 53 % 0.00 in
11:36 76.5 °F 57.0 °F 30.18 in Calm   2.0 mph 52 % 0.00 in
11:51 78.2 °F 56.0 °F 30.18 in ENE 4.0 mph 6.0 mph 47 % 0.00 in
12:06 79.4 °F 57.0 °F 30.17 in Calm   4.0 mph 46 % 0.00 in
12:21 79.3 °F 54.0 °F 30.17 in Calm   4.0 mph 42 % 0.00 in
12:36 79.8 °F 56.0 °F 30.16 in ENE 1.0 mph 4.0 mph 44 % 0.00 in
12:51 80.5 °F 54.0 °F 30.16 in NE 3.0 mph 5.0 mph 40 % 0.00 in
13:06 81.2 °F 55.0 °F 30.16 in ENE 4.0 mph 4.0 mph 40 % 0.00 in
13:21 81.0 °F 54.0 °F 30.16 in SE 2.0 mph 6.0 mph 39 % 0.00 in
13:36 80.9 °F 54.0 °F 30.15 in East 1.0 mph 5.0 mph 40 % 0.00 in
13:51 81.6 °F 54.0 °F 30.15 in SSE 1.0 mph 5.0 mph 38 % 0.00 in
14:06 80.1 °F 54.0 °F 30.14 in Calm   3.0 mph 41 % 0.00 in
14:21 81.4 °F 53.0 °F 30.14 in ENE 1.0 mph 6.0 mph 38 % 0.00 in
14:36 79.9 °F 55.0 °F 30.14 in Calm   4.0 mph 43 % 0.00 in
14:51 80.4 °F 55.0 °F 30.13 in ENE 1.0 mph 5.0 mph 42 % 0.00 in
15:06 81.8 °F 56.0 °F 30.13 in ENE 1.0 mph 3.0 mph 42 % 0.00 in
15:21 81.9 °F 55.0 °F 30.12 in Calm   4.0 mph 39 % 0.00 in
15:37 82.1 °F 55.0 °F 30.12 in Calm   6.0 mph 40 % 0.00 in
15:51 80.5 °F 53.0 °F 30.12 in SSE 3.0 mph 4.0 mph 39 % 0.00 in
16:06 81.4 °F 53.0 °F 30.11 in Calm   5.0 mph 38 % 0.00 in
16:21 82.1 °F 55.0 °F 30.11 in Calm   5.0 mph 39 % 0.00 in
16:36 81.1 °F 52.0 °F 30.11 in Calm   4.0 mph 36 % 0.00 in
16:51 81.8 °F 52.0 °F 30.10 in Calm   3.0 mph 36 % 0.00 in
17:06 81.0 °F 52.0 °F 30.10 in Calm   3.0 mph 37 % 0.00 in
17:21 81.1 °F 54.0 °F 30.10 in Calm   2.0 mph 39 % 0.00 in
17:36 80.5 °F 51.0 °F 30.09 in Calm   5.0 mph 36 % 0.00 in
17:51 81.4 °F 52.0 °F 30.09 in ENE 1.0 mph 2.0 mph 36 % 0.00 in
18:06 80.1 °F 50.0 °F 30.09 in Calm   1.0 mph 35 % 0.00 in
18:21 79.2 °F 53.0 °F 30.08 in Calm   4.0 mph 40 % 0.00 in
18:36 78.7 °F 51.0 °F 30.08 in Calm     38 % 0.00 in
18:51 78.9 °F 50.0 °F 30.08 in Calm   1.0 mph 37 % 0.00 in
19:06 78.7 °F 50.0 °F 30.07 in SE 3.0 mph 3.0 mph 37 % 0.00 in
19:21 78.2 °F 52.0 °F 30.07 in NE 4.0 mph 4.0 mph 40 % 0.00 in
19:36 77.6 °F 51.0 °F 30.07 in Calm   2.0 mph 39 % 0.00 in
19:52 76.9 °F 51.0 °F 30.07 in Calm     41 % 0.00 in
20:06 76.0 °F 52.0 °F 30.07 in Calm     43 % 0.00 in
20:22 75.0 °F 52.0 °F 30.06 in Calm     44 % 0.00 in
20:38 73.9 °F 52.0 °F 30.07 in Calm     46 % 0.00 in
20:52 72.8 °F 52.0 °F 30.07 in Calm     48 % 0.00 in
21:06 71.8 °F 52.0 °F 30.07 in Calm   1.0 mph 50 % 0.00 in
21:22 71.1 °F 53.0 °F 30.08 in Calm     53 % 0.00 in
21:37 70.5 °F 54.0 °F 30.08 in Calm     56 % 0.00 in
21:51 70.0 °F 54.0 °F 30.08 in Calm     58 % 0.00 in
22:07 69.5 °F 54.0 °F 30.09 in Calm     59 % 0.00 in
22:25 69.0 °F 54.0 °F 30.08 in Calm     59 % 0.00 in
22:37 68.5 °F 54.0 °F 30.09 in Calm     60 % 0.00 in
22:52 68.1 °F 54.0 °F 30.09 in Calm   1.0 mph 61 % 0.00 in
23:07 67.9 °F 55.0 °F 30.09 in Calm   1.0 mph 63 % 0.00 in
23:23 68.2 °F 55.0 °F 30.09 in ENE 2.0 mph 4.0 mph 63 % 0.00 in
23:37 68.5 °F 55.0 °F 30.09 in Calm     63 % 0.00 in
23:52 68.5 °F 55.0 °F 30.09 in Calm     63 % 0.00 in
Des Moines Weather and Climate
Compliments of Weather Underground - 3 mb

Script developed by  Jim McMurry - jmcmurry@mwt.net Adapted for the template by  Wim van der Kuil - Leuven-Template.eu

You find our weather info also at:

Weather Underground

Equipment we use:

Weather-station
Davis VP2 Plus

Weather-program
Davis Weatherlink.Com

Weather-server
iMac (Retina 4K, 21.5-inch, Late 2015)

Provider
Hostmonster.com

Davis VP2 Plus

Davis Weatherlink.Com

iMac (Retina 4K, 21.5-inch, Late 2015)

Hostmonster.com